Terminal Aerodrome Forecast
Issued by NWS Jacksonville, FL

Home | Current Version | Previous Version | Text Only | Print | Product List | Glossary On
Versions: 1 2 3 4 5 6 7 8 9 10 11 12 13 14 15 16 17 18 19 20 21
000
FTUS42 KJAX 241317 AAA
TAFSSI
TAF AMD
KSSI 241317Z 2413/2512 02008KT P6SM SCT015
      TEMPO 2414/2416 BKN015
     FM241800 05012KT P6SM SCT030
     FM250400 15003KT 3SM BR SCT005=

USA.gov is the U.S. government's official web portal to all federal, state and local government web resources and services.